createdAt,value
2023-01-25T00:00:50.300Z,99.99
2023-01-25T00:01:50.382Z,99.99
2023-01-25T00:02:50.357Z,99.99
2023-01-25T00:03:53.433Z,99.99
2023-01-25T00:04:50.263Z,99.99
2023-01-25T00:05:50.260Z,99.99
2023-01-25T00:06:50.227Z,99.99
2023-01-25T00:07:50.238Z,99.99
2023-01-25T00:08:50.211Z,99.99
2023-01-25T00:09:50.227Z,99.99
2023-01-25T00:10:50.191Z,99.99
2023-01-25T00:11:50.175Z,99.99
2023-01-25T00:12:50.155Z,99.99
2023-01-25T00:13:50.149Z,99.99
2023-01-25T00:14:50.148Z,99.99
2023-01-25T00:15:50.137Z,99.99
2023-01-25T00:16:50.190Z,99.99
2023-01-25T00:17:50.125Z,99.99
2023-01-25T00:18:50.110Z,99.99
2023-01-25T00:19:50.079Z,99.99
2023-01-25T00:20:50.082Z,99.99
2023-01-25T00:21:50.064Z,99.99
2023-01-25T00:22:50.084Z,99.99
2023-01-25T00:23:50.082Z,99.99
2023-01-25T00:24:50.014Z,99.99
2023-01-25T00:25:50.068Z,99.99
2023-01-25T00:26:50.029Z,99.99
2023-01-25T00:27:50.023Z,99.99
2023-01-25T00:28:49.983Z,99.99
2023-01-25T00:29:49.978Z,99.99
2023-01-25T00:30:49.949Z,99.99
2023-01-25T00:31:50.132Z,99.99
2023-01-25T00:32:50.118Z,99.99
2023-01-25T00:33:49.921Z,99.99
2023-01-25T00:34:49.950Z,99.99
2023-01-25T00:35:49.909Z,99.99
2023-01-25T00:36:49.911Z,99.99
2023-01-25T00:37:50.044Z,99.99
2023-01-25T00:38:49.877Z,99.99
2023-01-25T00:39:49.862Z,99.99
2023-01-25T00:40:49.858Z,99.99
2023-01-25T00:41:49.854Z,99.99
2023-01-25T00:42:49.826Z,99.99
2023-01-25T00:43:49.835Z,99.99
2023-01-25T00:44:49.836Z,99.99
2023-01-25T00:45:49.849Z,99.99
2023-01-25T00:46:49.809Z,99.99
2023-01-25T00:47:49.781Z,99.99
2023-01-25T00:48:49.776Z,99.99
2023-01-25T00:49:49.741Z,99.99
2023-01-25T00:50:49.723Z,99.99
2023-01-25T00:51:49.743Z,99.99
2023-01-25T00:52:49.841Z,99.99
2023-01-25T00:53:49.729Z,99.99
2023-01-25T00:54:49.675Z,99.99
2023-01-25T00:55:49.675Z,99.99
2023-01-25T00:56:49.669Z,99.99
2023-01-25T00:57:49.675Z,99.99
2023-01-25T00:58:49.686Z,99.99
2023-01-25T00:59:49.631Z,99.99
2023-01-25T01:00:49.661Z,99.99
2023-01-25T01:01:49.626Z,99.99
2023-01-25T01:02:49.591Z,99.99
2023-01-25T01:03:49.614Z,99.99
2023-01-25T01:04:49.615Z,99.99
2023-01-25T01:05:49.562Z,99.99
2023-01-25T01:06:49.547Z,99.99
2023-01-25T01:07:49.538Z,99.99
2023-01-25T01:08:49.523Z,99.99
2023-01-25T01:09:49.549Z,99.99
2023-01-25T01:10:49.520Z,99.99
2023-01-25T01:11:49.514Z,99.99
2023-01-25T01:12:49.476Z,99.99
2023-01-25T01:13:49.520Z,99.99
2023-01-25T01:14:49.487Z,99.99
2023-01-25T01:15:49.457Z,99.99
2023-01-25T01:16:49.537Z,99.99
2023-01-25T01:17:49.426Z,99.99
2023-01-25T01:18:49.417Z,99.99
2023-01-25T01:19:49.449Z,99.99
2023-01-25T01:20:49.378Z,99.99
2023-01-25T01:21:49.388Z,99.99
2023-01-25T01:22:49.393Z,99.99
2023-01-25T01:23:49.426Z,99.99
2023-01-25T01:24:49.354Z,99.99
2023-01-25T01:25:49.334Z,99.99
2023-01-25T01:26:49.341Z,99.99
2023-01-25T01:27:49.328Z,99.99
2023-01-25T01:28:49.307Z,99.99
2023-01-25T01:29:49.310Z,99.99
2023-01-25T01:30:49.273Z,99.99
2023-01-25T01:31:49.465Z,99.99
2023-01-25T01:32:49.416Z,99.99
2023-01-25T01:33:49.249Z,99.99
2023-01-25T01:34:49.248Z,99.99
2023-01-25T01:35:49.243Z,99.99
2023-01-25T01:36:49.207Z,99.99
2023-01-25T01:37:49.198Z,99.99
2023-01-25T01:38:49.181Z,99.99
2023-01-25T01:39:49.182Z,99.99
2023-01-25T01:40:51.032Z,99.99
2023-01-25T01:41:49.177Z,99.99
2023-01-25T01:42:49.138Z,99.99
2023-01-25T01:43:49.134Z,99.99
2023-01-25T01:44:49.114Z,99.99
2023-01-25T01:45:49.221Z,99.99
2023-01-25T01:46:49.137Z,99.99
2023-01-25T01:47:49.086Z,99.99
2023-01-25T01:48:49.088Z,99.99
2023-01-25T01:49:49.065Z,99.99
2023-01-25T01:50:49.049Z,99.99
2023-01-25T01:51:49.040Z,99.99
2023-01-25T01:52:49.094Z,99.99
2023-01-25T01:53:49.037Z,99.99
2023-01-25T01:54:49.015Z,99.99
2023-01-25T01:55:49.005Z,99.99
2023-01-25T01:56:49.001Z,99.99
2023-01-25T01:57:49.004Z,99.99
2023-01-25T01:58:48.990Z,99.99
2023-01-25T01:59:48.965Z,99.99
2023-01-25T02:00:48.940Z,99.99
2023-01-25T02:01:48.986Z,99.99
2023-01-25T02:02:49.009Z,99.99
2023-01-25T02:03:48.920Z,99.99
2023-01-25T02:04:48.899Z,99.99
2023-01-25T02:05:48.882Z,99.99
2023-01-25T02:06:48.896Z,99.99
2023-01-25T02:07:48.869Z,99.99
2023-01-25T02:08:48.865Z,99.99
2023-01-25T02:09:48.850Z,99.99
2023-01-25T02:10:48.870Z,99.99
2023-01-25T02:11:48.860Z,99.99
2023-01-25T02:12:48.805Z,99.99
2023-01-25T02:13:48.793Z,99.99
2023-01-25T02:14:48.817Z,99.99
2023-01-25T02:15:48.798Z,99.99
2023-01-25T02:16:48.810Z,99.99
2023-01-25T02:17:48.773Z,99.99
2023-01-25T02:18:48.734Z,99.99
2023-01-25T02:19:48.765Z,99.99
2023-01-25T02:20:48.730Z,99.99
2023-01-25T02:21:48.707Z,99.99
2023-01-25T02:22:48.700Z,99.99
2023-01-25T02:23:48.749Z,99.99
2023-01-25T02:24:48.670Z,99.99
2023-01-25T02:25:48.701Z,99.99
2023-01-25T02:26:48.642Z,99.99
2023-01-25T02:27:48.635Z,99.99
2023-01-25T02:28:48.640Z,99.99
2023-01-25T02:29:48.636Z,99.99
2023-01-25T02:30:48.691Z,99.99
2023-01-25T02:31:48.780Z,99.99
2023-01-25T02:32:48.574Z,99.99
2023-01-25T02:33:48.595Z,99.99
2023-01-25T02:34:48.571Z,99.99
2023-01-25T02:35:48.567Z,99.99
2023-01-25T02:36:48.532Z,99.99
2023-01-25T02:37:48.544Z,99.99
2023-01-25T02:38:48.506Z,99.99
2023-01-25T02:39:48.511Z,99.99
2023-01-25T02:40:48.520Z,99.99
2023-01-25T02:41:48.501Z,99.99
2023-01-25T02:42:48.470Z,99.99
2023-01-25T02:43:48.462Z,99.99
2023-01-25T02:44:48.439Z,99.99
2023-01-25T02:45:48.495Z,99.99
2023-01-25T02:46:48.460Z,99.99
2023-01-25T02:47:48.450Z,99.99
2023-01-25T02:48:48.418Z,99.99
2023-01-25T02:49:48.429Z,99.99
2023-01-25T02:50:48.371Z,99.99
2023-01-25T02:51:48.372Z,99.99
2023-01-25T02:52:48.368Z,99.99
2023-01-25T02:53:48.344Z,99.99
2023-01-25T02:54:48.384Z,99.99
2023-01-25T02:55:48.328Z,99.99
2023-01-25T02:56:48.325Z,99.99
2023-01-25T02:57:48.331Z,99.99
2023-01-25T02:58:48.337Z,99.99
2023-01-25T02:59:48.277Z,99.99
2023-01-25T03:00:48.263Z,99.99
2023-01-25T03:01:48.345Z,99.99
2023-01-25T03:02:48.294Z,99.99
2023-01-25T03:03:48.239Z,99.99
2023-01-25T03:04:48.217Z,99.99
2023-01-25T03:05:48.233Z,99.99
2023-01-25T03:06:48.207Z,99.99
2023-01-25T03:07:48.201Z,99.99
2023-01-25T03:08:48.194Z,99.99
2023-01-25T03:09:48.179Z,99.99
2023-01-25T03:10:48.154Z,99.99
2023-01-25T03:11:48.140Z,99.99
2023-01-25T03:12:48.129Z,99.99
2023-01-25T03:13:48.110Z,99.99
2023-01-25T03:14:48.139Z,99.99
2023-01-25T03:15:48.193Z,99.99
2023-01-25T03:16:48.099Z,99.99
2023-01-25T03:17:48.088Z,99.99
2023-01-25T03:18:48.091Z,99.99
2023-01-25T03:19:48.048Z,99.99
2023-01-25T03:20:48.051Z,99.99
2023-01-25T03:21:50.813Z,99.99
2023-01-25T03:22:48.038Z,99.99
2023-01-25T03:23:48.083Z,99.99
2023-01-25T03:24:47.995Z,99.99
2023-01-25T03:25:47.979Z,99.99
2023-01-25T03:26:47.986Z,99.99
2023-01-25T03:27:47.955Z,99.99
2023-01-25T03:28:47.954Z,99.99
2023-01-25T03:29:47.959Z,99.99
2023-01-25T03:30:47.928Z,99.99
2023-01-25T03:31:48.101Z,99.99
2023-01-25T03:32:47.932Z,99.99
2023-01-25T03:33:47.906Z,99.99
2023-01-25T03:34:47.904Z,99.99
2023-01-25T03:35:47.918Z,99.99
2023-01-25T03:36:47.861Z,99.99
2023-01-25T03:37:47.867Z,99.99
2023-01-25T03:38:47.846Z,99.99
2023-01-25T03:39:47.857Z,99.99
2023-01-25T03:40:47.819Z,99.99
2023-01-25T03:41:47.818Z,99.99
2023-01-25T03:42:47.792Z,99.99
2023-01-25T03:43:47.810Z,99.99
2023-01-25T03:44:47.795Z,99.99
2023-01-25T03:45:47.753Z,99.99
2023-01-25T03:46:47.863Z,99.99
2023-01-25T03:47:47.733Z,99.99
2023-01-25T03:48:47.742Z,99.99
2023-01-25T03:49:47.727Z,99.99
2023-01-25T03:50:47.718Z,99.99
2023-01-25T03:51:47.688Z,99.99
2023-01-25T03:52:47.714Z,99.99
2023-01-25T03:53:47.691Z,99.99
2023-01-25T03:54:47.683Z,99.99
2023-01-25T03:55:48.685Z,99.99
2023-01-25T03:56:47.681Z,99.99
2023-01-25T03:57:47.619Z,99.99
2023-01-25T03:58:47.614Z,99.99
2023-01-25T03:59:47.636Z,99.99
2023-01-25T04:00:47.616Z,99.99
2023-01-25T04:01:47.578Z,99.99
2023-01-25T04:02:47.581Z,99.99
2023-01-25T04:03:47.549Z,99.99
2023-01-25T04:04:47.551Z,99.99
2023-01-25T04:05:47.545Z,99.99
2023-01-25T04:06:47.539Z,99.99
2023-01-25T04:07:47.509Z,99.99
2023-01-25T04:08:47.516Z,99.99
2023-01-25T04:09:47.533Z,99.99
2023-01-25T04:10:47.478Z,99.99
2023-01-25T04:11:47.477Z,99.99
2023-01-25T04:12:47.492Z,99.99
2023-01-25T04:13:47.437Z,99.99
2023-01-25T04:14:47.449Z,99.99
2023-01-25T04:15:47.416Z,99.99
2023-01-25T04:16:47.479Z,99.99
2023-01-25T04:17:47.393Z,99.99
2023-01-25T04:18:47.417Z,99.99
2023-01-25T04:19:47.393Z,99.99
2023-01-25T04:20:47.378Z,99.99
2023-01-25T04:21:47.350Z,99.99
2023-01-25T04:22:47.342Z,99.99
2023-01-25T04:23:47.508Z,99.99
2023-01-25T04:24:47.344Z,99.99
2023-01-25T04:25:47.365Z,99.99
2023-01-25T04:26:47.315Z,99.99
2023-01-25T04:27:47.308Z,99.99
2023-01-25T04:28:47.292Z,99.99
2023-01-25T04:29:47.256Z,99.99
2023-01-25T04:30:47.254Z,99.99
2023-01-25T04:31:47.327Z,99.99
2023-01-25T04:32:47.423Z,99.99
2023-01-25T04:33:47.231Z,99.99
2023-01-25T04:34:47.207Z,99.99
2023-01-25T04:35:47.186Z,99.99
2023-01-25T04:36:47.186Z,99.99
2023-01-25T04:37:47.168Z,99.99
2023-01-25T04:38:47.196Z,99.99
2023-01-25T04:39:47.184Z,99.99
2023-01-25T04:40:47.194Z,99.99
2023-01-25T04:41:47.148Z,99.99
2023-01-25T04:42:47.114Z,99.99
2023-01-25T04:43:47.126Z,99.99
2023-01-25T04:44:47.132Z,99.99
2023-01-25T04:45:47.142Z,99.99
2023-01-25T04:46:47.079Z,99.99
2023-01-25T04:47:47.072Z,99.99
2023-01-25T04:48:47.076Z,99.99
2023-01-25T04:49:47.065Z,99.99
2023-01-25T04:50:47.056Z,99.99
2023-01-25T04:51:47.012Z,99.99
2023-01-25T04:52:47.004Z,99.99
2023-01-25T04:53:46.990Z,99.99
2023-01-25T04:54:46.999Z,99.99
2023-01-25T04:55:46.990Z,99.99
2023-01-25T04:56:46.982Z,99.99
2023-01-25T04:57:46.969Z,99.99
2023-01-25T04:58:47.023Z,99.99
2023-01-25T04:59:46.943Z,99.99
2023-01-25T05:00:46.925Z,99.99
2023-01-25T05:01:46.899Z,99.99
2023-01-25T05:02:49.938Z,99.99
2023-01-25T05:03:46.899Z,99.99
2023-01-25T05:04:46.869Z,99.99
2023-01-25T05:05:46.849Z,99.99
2023-01-25T05:06:46.849Z,99.99
2023-01-25T05:07:46.831Z,99.99
2023-01-25T05:08:46.874Z,99.99
2023-01-25T05:09:46.810Z,99.99
2023-01-25T05:10:46.802Z,99.99
2023-01-25T05:11:46.795Z,99.99
2023-01-25T05:12:46.779Z,99.99
2023-01-25T05:13:46.780Z,99.99
2023-01-25T05:14:46.794Z,99.99
2023-01-25T05:15:46.736Z,99.99
2023-01-25T05:16:46.816Z,99.99
2023-01-25T05:17:46.716Z,99.99
2023-01-25T05:18:49.182Z,99.99
2023-01-25T05:19:46.698Z,99.99
2023-01-25T05:20:46.740Z,99.99
2023-01-25T05:21:46.672Z,99.99
2023-01-25T05:22:46.686Z,99.99
2023-01-25T05:23:46.689Z,99.99
2023-01-25T05:24:46.645Z,99.99
2023-01-25T05:25:46.648Z,99.99
2023-01-25T05:26:46.650Z,99.99
2023-01-25T05:27:46.602Z,99.99
2023-01-25T05:28:46.620Z,99.99
2023-01-25T05:29:46.598Z,99.99
2023-01-25T05:30:46.655Z,99.99
2023-01-25T05:31:46.622Z,99.99
2023-01-25T05:32:46.557Z,99.99
2023-01-25T05:33:46.554Z,99.99
2023-01-25T05:34:46.534Z,99.99
2023-01-25T05:35:46.532Z,99.99
2023-01-25T05:36:46.521Z,99.99
2023-01-25T05:37:46.495Z,99.99
2023-01-25T05:38:46.490Z,99.99
2023-01-25T05:39:46.479Z,99.99
2023-01-25T05:40:46.487Z,99.99
2023-01-25T05:41:46.453Z,99.99
2023-01-25T05:42:46.443Z,99.99
2023-01-25T05:43:46.423Z,99.99
2023-01-25T05:44:47.943Z,99.99
2023-01-25T05:45:46.476Z,99.99
2023-01-25T05:46:46.416Z,99.99
2023-01-25T05:47:46.403Z,99.99
2023-01-25T05:48:46.372Z,99.99
2023-01-25T05:49:46.374Z,99.99
2023-01-25T05:50:46.383Z,99.99
2023-01-25T05:51:46.379Z,99.99
2023-01-25T05:52:46.326Z,99.99
2023-01-25T05:53:46.310Z,99.99
2023-01-25T05:54:46.312Z,99.99
2023-01-25T05:55:46.291Z,99.99
2023-01-25T05:56:46.288Z,99.99
2023-01-25T05:57:46.639Z,99.99
2023-01-25T05:58:46.280Z,99.99
2023-01-25T05:59:46.254Z,99.99
2023-01-25T06:00:46.233Z,99.99
2023-01-25T06:01:46.244Z,99.99
2023-01-25T06:02:46.400Z,99.99
2023-01-25T06:03:46.356Z,99.99
2023-01-25T06:04:46.214Z,99.99
2023-01-25T06:05:46.188Z,99.99
2023-01-25T06:06:46.167Z,99.99
2023-01-25T06:07:46.151Z,99.99
2023-01-25T06:08:46.147Z,99.99
2023-01-25T06:09:46.163Z,99.99
2023-01-25T06:10:46.124Z,99.99
2023-01-25T06:11:46.106Z,99.99
2023-01-25T06:12:46.134Z,99.99
2023-01-25T06:13:46.083Z,99.99
2023-01-25T06:14:46.085Z,99.99
2023-01-25T06:15:46.127Z,99.99
2023-01-25T06:16:46.083Z,99.99
2023-01-25T06:17:46.070Z,99.99
2023-01-25T06:18:46.067Z,99.99
2023-01-25T06:19:46.017Z,99.99
2023-01-25T06:20:46.011Z,99.99
2023-01-25T06:21:46.059Z,99.99
2023-01-25T06:22:45.993Z,99.99
2023-01-25T06:23:45.969Z,99.99
2023-01-25T06:24:45.975Z,99.99
2023-01-25T06:25:45.971Z,99.99
2023-01-25T06:26:45.941Z,99.99
2023-01-25T06:27:45.947Z,99.99
2023-01-25T06:28:45.953Z,99.99
2023-01-25T06:29:45.928Z,99.99
2023-01-25T06:30:45.914Z,99.99
2023-01-25T06:31:46.014Z,99.99
2023-01-25T06:32:45.878Z,99.99
2023-01-25T06:33:45.881Z,99.99
2023-01-25T06:34:45.872Z,99.99
2023-01-25T06:35:45.841Z,99.99
2023-01-25T06:36:45.833Z,99.99
2023-01-25T06:37:45.817Z,99.99
2023-01-25T06:38:45.852Z,99.99
2023-01-25T06:39:47.495Z,99.99
2023-01-25T06:40:45.801Z,99.99
2023-01-25T06:41:45.810Z,99.99
2023-01-25T06:42:45.786Z,99.99
2023-01-25T06:43:45.788Z,99.99
2023-01-25T06:44:45.745Z,99.99
2023-01-25T06:45:45.774Z,99.99
2023-01-25T06:46:45.770Z,99.99
2023-01-25T06:47:45.729Z,99.99
2023-01-25T06:48:45.712Z,99.99
2023-01-25T06:49:45.700Z,99.99
2023-01-25T06:50:45.675Z,99.99
2023-01-25T06:51:45.688Z,99.99
2023-01-25T06:52:45.652Z,99.99
2023-01-25T06:53:45.648Z,99.99
2023-01-25T06:54:45.626Z,99.99
2023-01-25T06:55:45.619Z,99.99
2023-01-25T06:56:45.630Z,99.99
2023-01-25T06:57:45.626Z,99.99
2023-01-25T06:58:45.594Z,99.99
2023-01-25T06:59:45.569Z,99.99
2023-01-25T07:00:45.564Z,99.99
2023-01-25T07:01:45.655Z,99.99
2023-01-25T07:02:45.645Z,99.99
2023-01-25T07:03:45.533Z,99.99
2023-01-25T07:04:45.523Z,99.99
2023-01-25T07:05:45.515Z,99.99
2023-01-25T07:06:45.497Z,99.99
2023-01-25T07:07:45.502Z,99.99
2023-01-25T07:08:45.476Z,99.99
2023-01-25T07:09:45.472Z,99.99
2023-01-25T07:10:45.449Z,99.99
2023-01-25T07:11:45.443Z,99.99
2023-01-25T07:12:45.446Z,99.99
2023-01-25T07:13:45.428Z,99.99
2023-01-25T07:14:45.407Z,99.99
2023-01-25T07:15:45.456Z,99.99
2023-01-25T07:16:45.394Z,99.99
2023-01-25T07:17:45.368Z,99.99
2023-01-25T07:18:45.378Z,99.99
2023-01-25T07:19:45.363Z,99.99
2023-01-25T07:20:45.353Z,99.99
2023-01-25T07:21:45.339Z,99.99
2023-01-25T07:22:45.316Z,99.99
2023-01-25T07:23:45.408Z,99.99
2023-01-25T07:24:45.284Z,99.99
2023-01-25T07:25:45.277Z,99.99
2023-01-25T07:26:45.266Z,99.99
2023-01-25T07:27:45.282Z,99.99
2023-01-25T07:28:45.250Z,99.99
2023-01-25T07:29:45.254Z,99.99
2023-01-25T07:30:45.235Z,99.99
2023-01-25T07:31:45.216Z,99.99
2023-01-25T07:32:45.204Z,99.99
2023-01-25T07:33:45.225Z,99.99
2023-01-25T07:34:45.174Z,99.99
2023-01-25T07:35:45.180Z,99.99
2023-01-25T07:36:45.167Z,99.99
2023-01-25T07:37:45.165Z,99.99
2023-01-25T07:38:45.202Z,99.99
2023-01-25T07:39:45.122Z,99.99
2023-01-25T07:40:45.104Z,99.99
2023-01-25T07:41:45.123Z,99.99
2023-01-25T07:42:45.083Z,99.99
2023-01-25T07:43:45.078Z,99.99
2023-01-25T07:44:45.067Z,99.99
2023-01-25T07:45:45.073Z,99.99
2023-01-25T07:46:45.044Z,99.99
2023-01-25T07:47:45.058Z,99.99
2023-01-25T07:48:45.044Z,99.99
2023-01-25T07:49:45.011Z,99.99
2023-01-25T07:50:45.031Z,99.99
2023-01-25T07:51:44.986Z,99.99
2023-01-25T07:52:44.971Z,99.99
2023-01-25T07:53:45.014Z,99.99
2023-01-25T07:54:44.946Z,99.99
2023-01-25T07:55:44.938Z,99.99
2023-01-25T07:56:44.971Z,99.99
2023-01-25T07:57:44.913Z,99.99
2023-01-25T07:58:44.937Z,99.99
2023-01-25T07:59:44.895Z,99.99
2023-01-25T08:00:44.930Z,99.99
2023-01-25T08:01:44.899Z,99.99
2023-01-25T08:02:44.879Z,99.99
2023-01-25T08:03:44.891Z,99.99
2023-01-25T08:04:44.833Z,99.99
2023-01-25T08:05:44.829Z,99.99
2023-01-25T08:06:44.863Z,99.99
2023-01-25T08:07:44.808Z,99.99
2023-01-25T08:08:44.814Z,99.99
2023-01-25T08:09:44.826Z,99.99
2023-01-25T08:10:44.773Z,99.99
2023-01-25T08:11:44.814Z,99.99
2023-01-25T08:12:44.746Z,99.99
2023-01-25T08:13:44.739Z,99.99
2023-01-25T08:14:44.735Z,99.99
2023-01-25T08:15:44.716Z,99.99
2023-01-25T08:16:45.300Z,99.99
2023-01-25T08:17:44.718Z,99.99
2023-01-25T08:18:44.683Z,99.99
2023-01-25T08:19:44.677Z,99.99
2023-01-25T08:20:44.711Z,99.99
2023-01-25T08:21:44.647Z,99.99
2023-01-25T08:22:44.646Z,99.99
2023-01-25T08:23:44.849Z,99.99
2023-01-25T08:24:44.661Z,99.99
2023-01-25T08:25:44.613Z,99.99
2023-01-25T08:26:44.667Z,99.99
2023-01-25T08:27:44.582Z,99.99
2023-01-25T08:28:44.580Z,99.99
2023-01-25T08:29:44.588Z,99.99
2023-01-25T08:30:56.589Z,99.99
2023-01-25T08:31:45.641Z,99.99
2023-01-25T08:32:44.523Z,99.99
2023-01-25T08:33:44.520Z,99.99
2023-01-25T08:34:44.515Z,99.99
2023-01-25T08:35:44.492Z,99.99
2023-01-25T08:36:44.459Z,99.99
2023-01-25T08:37:44.461Z,99.99
2023-01-25T08:38:44.452Z,99.99
2023-01-25T08:39:44.462Z,99.99
2023-01-25T08:40:44.421Z,99.99
2023-01-25T08:41:44.427Z,99.61
2023-01-25T08:42:44.397Z,99.51
2023-01-25T08:43:44.398Z,99.99
2023-01-25T08:44:44.428Z,99.99
2023-01-25T08:45:44.373Z,99.99
2023-01-25T08:46:44.362Z,99.99
2023-01-25T08:47:44.352Z,99.99
2023-01-25T08:48:44.324Z,99.92
2023-01-25T08:49:44.353Z,99.99
2023-01-25T08:50:44.321Z,99.86
2023-01-25T08:51:44.314Z,99.96
2023-01-25T08:52:44.293Z,99.96
2023-01-25T08:53:44.297Z,99.99
2023-01-25T08:54:44.272Z,99.99
2023-01-25T08:55:44.256Z,99.99
2023-01-25T08:56:44.314Z,99.99
2023-01-25T08:57:44.264Z,99.99
2023-01-25T08:58:44.215Z,99.99
2023-01-25T08:59:44.227Z,99.99
2023-01-25T09:00:44.251Z,99.99
2023-01-25T09:01:44.190Z,99.99
2023-01-25T09:02:44.180Z,99.99
2023-01-25T09:03:44.414Z,99.99
2023-01-25T09:04:44.141Z,99.99
2023-01-25T09:05:44.193Z,99.99
2023-01-25T09:06:44.121Z,99.99
2023-01-25T09:07:44.111Z,99.47
2023-01-25T09:08:44.119Z,98.47
2023-01-25T09:09:44.098Z,98.93
2023-01-25T09:10:44.115Z,98.62
2023-01-25T09:11:44.098Z,98.83
2023-01-25T09:12:44.060Z,99.46
2023-01-25T09:13:44.068Z,99.20
2023-01-25T09:14:44.052Z,99.41
2023-01-25T09:15:44.027Z,99.73
2023-01-25T09:16:44.035Z,99.52
2023-01-25T09:17:44.014Z,98.89
2023-01-25T09:18:44.028Z,98.22
2023-01-25T09:19:43.992Z,98.89
2023-01-25T09:20:43.968Z,98.37
2023-01-25T09:21:43.996Z,98.16
2023-01-25T09:22:43.955Z,98.37
2023-01-25T09:23:51.222Z,98.05
2023-01-25T09:24:45.004Z,97.85
2023-01-25T09:25:43.947Z,98.32
2023-01-25T09:26:50.056Z,98.16
2023-01-25T09:27:44.893Z,97.95
2023-01-25T09:28:43.881Z,97.70
2023-01-25T09:29:59.950Z,97.95
2023-01-25T09:30:48.358Z,98.32
2023-01-25T09:31:44.964Z,97.43
2023-01-25T09:32:43.990Z,97.49
2023-01-25T09:33:43.852Z,97.80
2023-01-25T09:34:43.809Z,98.11
2023-01-25T09:35:43.822Z,98.80
2023-01-25T09:36:43.791Z,98.38
2023-01-25T09:37:43.798Z,98.38
2023-01-25T09:38:43.800Z,98.59
2023-01-25T09:39:43.775Z,98.02
2023-01-25T09:40:43.740Z,98.13
2023-01-25T09:41:43.741Z,98.02
2023-01-25T09:42:43.718Z,98.19
2023-01-25T09:43:43.717Z,97.56
2023-01-25T09:44:43.764Z,97.52
2023-01-25T09:45:43.724Z,97.41
2023-01-25T09:46:43.686Z,97.41
2023-01-25T09:47:43.679Z,97.52
2023-01-25T09:48:43.668Z,96.89
2023-01-25T09:49:43.647Z,96.58
2023-01-25T09:50:43.647Z,95.81
2023-01-25T09:51:43.631Z,95.85
2023-01-25T09:52:43.634Z,95.23
2023-01-25T09:53:43.639Z,95.64
2023-01-25T09:54:46.959Z,95.64
2023-01-25T09:55:43.579Z,96.01
2023-01-25T09:56:43.567Z,95.18
2023-01-25T09:57:45.864Z,95.08
2023-01-25T09:58:43.549Z,95.50
2023-01-25T09:59:43.531Z,95.29
2023-01-25T10:00:43.524Z,95.18
2023-01-25T10:01:43.585Z,95.18
2023-01-25T10:02:43.634Z,95.25
2023-01-25T10:03:43.536Z,95.18
2023-01-25T10:04:43.466Z,95.35
2023-01-25T10:05:43.483Z,95.35
2023-01-25T10:06:48.747Z,95.14
2023-01-25T10:07:44.440Z,95.03
2023-01-25T10:08:43.472Z,94.68
2023-01-25T10:09:43.418Z,94.78
2023-01-25T10:10:43.416Z,94.89
2023-01-25T10:11:45.335Z,94.89
2023-01-25T10:12:43.398Z,94.89
2023-01-25T10:13:43.376Z,94.74
2023-01-25T10:14:43.359Z,93.29
2023-01-25T10:15:43.420Z,91.35
2023-01-25T10:16:43.406Z,90.04
2023-01-25T10:17:43.364Z,90.35
2023-01-25T10:18:43.308Z,90.39
2023-01-25T10:19:43.315Z,91.53
2023-01-25T10:20:43.280Z,92.27
2023-01-25T10:21:43.308Z,92.68
2023-01-25T10:22:43.260Z,92.64
2023-01-25T10:23:43.263Z,92.29
2023-01-25T10:24:43.250Z,93.01
2023-01-25T10:25:43.229Z,92.70
2023-01-25T10:26:43.244Z,93.33
2023-01-25T10:27:43.206Z,93.18
2023-01-25T10:28:43.190Z,93.39
2023-01-25T10:29:43.193Z,93.35
2023-01-25T10:30:43.211Z,92.61
2023-01-25T10:31:43.306Z,91.89
2023-01-25T10:32:55.437Z,91.99
2023-01-25T10:33:44.174Z,91.99
2023-01-25T10:34:55.327Z,91.27
2023-01-25T10:35:46.794Z,91.16
2023-01-25T10:36:43.106Z,91.89
2023-01-25T10:37:43.103Z,92.10
2023-01-25T10:38:43.100Z,91.78
2023-01-25T10:39:43.102Z,91.78
2023-01-25T10:40:43.053Z,91.95
2023-01-25T10:41:43.065Z,91.89
2023-01-25T10:42:43.066Z,91.74
2023-01-25T10:43:43.093Z,91.22
2023-01-25T10:44:43.018Z,90.50
2023-01-25T10:45:43.008Z,90.64
2023-01-25T10:46:43.027Z,90.75
2023-01-25T10:47:43.000Z,90.64
2023-01-25T10:48:42.963Z,90.23
2023-01-25T10:49:43.000Z,90.75
2023-01-25T10:50:42.942Z,91.16
2023-01-25T10:51:42.940Z,91.37
2023-01-25T10:52:42.937Z,91.43
2023-01-25T10:53:42.916Z,91.22
2023-01-25T10:54:42.944Z,90.50
2023-01-25T10:55:42.892Z,88.15
2023-01-25T10:56:42.894Z,88.67
2023-01-25T10:57:42.869Z,88.98
2023-01-25T10:58:42.857Z,89.64
2023-01-25T10:59:42.851Z,89.70
2023-01-25T11:00:43.007Z,89.18
2023-01-25T11:01:42.844Z,89.64
2023-01-25T11:02:42.835Z,89.60
2023-01-25T11:03:42.800Z,89.70
2023-01-25T11:04:44.333Z,89.50
2023-01-25T11:05:42.830Z,89.81
2023-01-25T11:06:42.768Z,90.33
2023-01-25T11:07:42.776Z,90.39
2023-01-25T11:08:42.747Z,89.60
2023-01-25T11:09:42.730Z,90.39
2023-01-25T11:10:42.745Z,90.50
2023-01-25T11:11:42.707Z,90.60
2023-01-25T11:12:42.691Z,90.39
2023-01-25T11:13:42.703Z,89.98
2023-01-25T11:14:42.675Z,89.62
2023-01-25T11:15:42.733Z,89.77
2023-01-25T11:16:42.665Z,89.36
2023-01-25T11:17:42.645Z,88.31
2023-01-25T11:18:42.642Z,88.62
2023-01-25T11:19:42.653Z,89.04
2023-01-25T11:20:42.605Z,88.10
2023-01-25T11:21:42.637Z,88.73
2023-01-25T11:22:42.596Z,88.46
2023-01-25T11:23:42.574Z,88.15
2023-01-25T11:24:42.571Z,88.56
2023-01-25T11:25:42.550Z,88.56
2023-01-25T11:26:42.566Z,89.18
2023-01-25T11:27:42.531Z,89.15
2023-01-25T11:28:42.511Z,89.04
2023-01-25T11:29:42.510Z,89.15
2023-01-25T11:30:42.523Z,88.73
2023-01-25T11:31:42.587Z,88.84
2023-01-25T11:32:42.497Z,88.31
2023-01-25T11:33:42.469Z,88.46
2023-01-25T11:34:42.620Z,88.31
2023-01-25T11:35:42.439Z,88.31
2023-01-25T11:36:42.440Z,88.10
2023-01-25T11:37:42.469Z,88.67
2023-01-25T11:38:45.307Z,88.87
2023-01-25T11:39:42.384Z,88.87
2023-01-25T11:40:42.401Z,88.67
2023-01-25T11:41:42.363Z,89.18
2023-01-25T11:42:43.808Z,88.77
2023-01-25T11:43:42.344Z,89.29
2023-01-25T11:44:42.338Z,89.29
2023-01-25T11:45:42.320Z,89.39
2023-01-25T11:46:42.401Z,89.29
2023-01-25T11:47:42.336Z,89.60
2023-01-25T11:48:42.318Z,89.39
2023-01-25T11:49:42.277Z,89.56
2023-01-25T11:50:42.308Z,89.60
2023-01-25T11:51:42.256Z,89.67
2023-01-25T11:52:42.269Z,89.46
2023-01-25T11:53:42.264Z,89.36
2023-01-25T11:54:42.225Z,89.67
2023-01-25T11:55:42.204Z,89.36
2023-01-25T11:56:42.208Z,89.77
2023-01-25T11:57:43.811Z,89.36
2023-01-25T11:58:42.178Z,89.56
2023-01-25T11:59:42.160Z,89.56
2023-01-25T12:00:42.176Z,89.77
2023-01-25T12:01:42.159Z,89.56
2023-01-25T12:02:42.222Z,89.36
2023-01-25T12:03:42.164Z,88.21
2023-01-25T12:04:42.108Z,87.42
2023-01-25T12:05:42.098Z,88.25
2023-01-25T12:06:42.140Z,88.98
2023-01-25T12:07:42.070Z,89.50
2023-01-25T12:08:42.068Z,89.50
2023-01-25T12:09:42.067Z,89.70
2023-01-25T12:10:42.042Z,89.39
2023-01-25T12:11:42.050Z,89.18
2023-01-25T12:12:42.030Z,90.12
2023-01-25T12:13:42.007Z,90.50
2023-01-25T12:14:41.997Z,90.64
2023-01-25T12:15:42.004Z,90.50
2023-01-25T12:16:42.077Z,90.39
2023-01-25T12:17:42.011Z,90.39
2023-01-25T12:18:42.008Z,90.50
2023-01-25T12:19:41.942Z,90.54
2023-01-25T12:20:41.925Z,90.60
2023-01-25T12:21:41.924Z,89.25
2023-01-25T12:22:41.947Z,89.56
2023-01-25T12:23:41.913Z,89.67
2023-01-25T12:24:41.893Z,88.77
2023-01-25T12:25:41.962Z,88.15
2023-01-25T12:26:41.876Z,89.29
2023-01-25T12:27:41.861Z,89.50
2023-01-25T12:28:41.843Z,90.54
2023-01-25T12:29:41.824Z,90.44
2023-01-25T12:30:41.831Z,90.64
2023-01-25T12:31:41.891Z,89.77
2023-01-25T12:32:41.806Z,90.29
2023-01-25T12:33:41.773Z,90.08
2023-01-25T12:34:41.775Z,90.60
2023-01-25T12:35:41.759Z,90.60
2023-01-25T12:36:41.772Z,90.56
2023-01-25T12:37:41.735Z,90.50
2023-01-25T12:38:41.724Z,90.45
2023-01-25T12:39:41.828Z,89.67
2023-01-25T12:40:41.723Z,89.62
2023-01-25T12:41:41.714Z,89.42
2023-01-25T12:42:41.686Z,89.31
2023-01-25T12:43:41.674Z,89.42
2023-01-25T12:44:41.656Z,88.79
2023-01-25T12:45:41.675Z,87.65
2023-01-25T12:46:41.662Z,88.48
2023-01-25T12:47:41.642Z,88.59
2023-01-25T12:48:41.634Z,89.77
2023-01-25T12:49:41.633Z,88.84
2023-01-25T12:50:41.591Z,89.36
2023-01-25T12:51:41.581Z,89.56
2023-01-25T12:52:41.586Z,88.77